createdAt,value
2023-08-14T00:01:48.078Z,96562.44
2023-08-14T00:04:14.459Z,96564.75
2023-08-14T00:06:40.908Z,96562.84
2023-08-14T00:09:07.382Z,96562.03
2023-08-14T00:11:33.973Z,96563.06
2023-08-14T00:14:00.411Z,96560.41
2023-08-14T00:16:27.423Z,96560.44
2023-08-14T00:18:54.353Z,96554.69
2023-08-14T00:21:21.115Z,96556.34
2023-08-14T00:23:47.529Z,96563.56
2023-08-14T00:26:14.079Z,96565.41
2023-08-14T00:28:40.669Z,96574.06
2023-08-14T00:31:07.138Z,96566.47
2023-08-14T00:33:33.624Z,96577.59
2023-08-14T00:36:00.520Z,96562.13
2023-08-14T00:38:26.930Z,96556.72
2023-08-14T00:40:54.098Z,96561.28
2023-08-14T00:43:23.442Z,96565.16
2023-08-14T00:45:53.889Z,96562.09
2023-08-14T00:48:20.477Z,96554.69
2023-08-14T00:50:47.872Z,96544.81
2023-08-14T00:53:15.603Z,96544.00
2023-08-14T00:55:42.188Z,96542.56
2023-08-14T00:58:08.923Z,96548.16
2023-08-14T01:00:36.493Z,96533.94
2023-08-14T01:03:03.874Z,96532.91
2023-08-14T01:05:31.928Z,96521.78
2023-08-14T01:07:58.444Z,96527.53
2023-08-14T01:10:40.492Z,96521.16
2023-08-14T01:13:34.621Z,96523.00
2023-08-14T01:16:07.604Z,96521.34
2023-08-14T01:18:36.840Z,96529.38
2023-08-14T01:21:22.519Z,96516.19
2023-08-14T01:24:12.217Z,96504.69
2023-08-14T01:26:39.452Z,96515.00
2023-08-14T01:29:06.206Z,96523.03
2023-08-14T01:31:32.676Z,96531.66
2023-08-14T01:33:59.083Z,96526.34
2023-08-14T01:36:40.048Z,96521.44
2023-08-14T01:39:09.315Z,96521.44
2023-08-14T01:41:39.356Z,96531.53
2023-08-14T01:44:10.112Z,96522.31
2023-08-14T01:46:37.613Z,96526.00
2023-08-14T01:49:05.446Z,96518.78
2023-08-14T01:51:32.575Z,96516.09
2023-08-14T01:53:59.013Z,96510.13
2023-08-14T01:56:25.451Z,96507.88
2023-08-14T01:58:51.885Z,96505.41
2023-08-14T02:01:18.371Z,96498.88
2023-08-14T02:03:44.898Z,96491.25
2023-08-14T02:06:11.374Z,96492.28
2023-08-14T02:08:37.764Z,96492.53
2023-08-14T02:11:08.446Z,96488.59
2023-08-14T02:13:34.983Z,96494.16
2023-08-14T02:16:04.245Z,96483.50
2023-08-14T02:18:30.834Z,96486.75
2023-08-14T02:21:00.364Z,96477.88
2023-08-14T02:23:26.846Z,96474.19
2023-08-14T02:25:56.602Z,96475.00
2023-08-14T02:28:23.229Z,96474.41
2023-08-14T02:30:49.714Z,96473.44
2023-08-14T02:33:16.180Z,96469.34
2023-08-14T02:35:42.620Z,96468.47
2023-08-14T02:38:09.135Z,96471.75
2023-08-14T02:40:35.597Z,96472.19
2023-08-14T02:43:03.860Z,96472.88
2023-08-14T02:45:30.525Z,96468.53
2023-08-14T02:47:57.034Z,96464.59
2023-08-14T02:50:23.546Z,96466.03
2023-08-14T02:52:50.513Z,96464.59
2023-08-14T02:55:16.945Z,96466.00
2023-08-14T02:57:43.782Z,96465.59
2023-08-14T03:00:10.845Z,96461.94
2023-08-14T03:02:37.429Z,96473.03
2023-08-14T03:05:03.974Z,96472.63
2023-08-14T03:07:30.413Z,96467.03
2023-08-14T03:09:57.510Z,96466.25
2023-08-14T03:12:24.002Z,96464.41
2023-08-14T03:14:50.432Z,96474.28
2023-08-14T03:17:17.299Z,96480.50
2023-08-14T03:19:43.766Z,96478.06
2023-08-14T03:22:10.169Z,96479.69
2023-08-14T03:24:36.575Z,96469.81
2023-08-14T03:27:03.004Z,96479.72
2023-08-14T03:29:29.466Z,96476.66
2023-08-14T03:31:55.869Z,96482.19
2023-08-14T03:34:22.305Z,96473.72
2023-08-14T03:36:48.711Z,96476.03
2023-08-14T03:39:15.110Z,96470.03
2023-08-14T03:41:41.505Z,96480.09
2023-08-14T03:44:07.921Z,96471.94
2023-08-14T03:46:34.413Z,96487.94
2023-08-14T03:49:00.959Z,96483.00
2023-08-14T03:51:27.462Z,96491.47
2023-08-14T03:53:53.868Z,96481.81
2023-08-14T03:56:20.254Z,96488.38
2023-08-14T03:58:46.674Z,96488.59
2023-08-14T04:01:13.070Z,96496.00
2023-08-14T04:03:39.894Z,96490.84
2023-08-14T04:06:06.592Z,96491.25
2023-08-14T04:08:33.074Z,96484.88
2023-08-14T04:10:59.476Z,96479.16
2023-08-14T04:13:26.791Z,96484.06
2023-08-14T04:16:00.669Z,96473.59
2023-08-14T04:18:28.750Z,96480.19
2023-08-14T04:20:55.539Z,96473.59
2023-08-14T04:23:24.076Z,96479.16
2023-08-14T04:25:51.381Z,96482.44
2023-08-14T04:28:17.803Z,96474.84
2023-08-14T04:30:44.347Z,96476.06
2023-08-14T04:33:10.853Z,96477.09
2023-08-14T04:35:39.012Z,96471.34
2023-08-14T04:38:05.823Z,96472.38
2023-08-14T04:40:32.541Z,96475.25
2023-08-14T04:42:58.979Z,96482.44
2023-08-14T04:45:25.506Z,96478.28
2023-08-14T04:47:53.737Z,96467.03
2023-08-14T04:50:21.589Z,96471.75
2023-08-14T04:52:47.980Z,96469.91
2023-08-14T04:55:14.399Z,96476.47
2023-08-14T04:57:40.792Z,96464.56
2023-08-14T05:00:07.916Z,96459.19
2023-08-14T05:02:34.393Z,96472.53
2023-08-14T05:05:00.939Z,96470.28
2023-08-14T05:07:28.006Z,96478.97
2023-08-14T05:09:54.502Z,96471.13
2023-08-14T05:12:21.005Z,96469.50
2023-08-14T05:14:48.321Z,96464.38
2023-08-14T05:17:14.781Z,96464.75
2023-08-14T05:19:41.261Z,96462.50
2023-08-14T05:22:07.693Z,96465.78
2023-08-14T05:24:34.099Z,96456.97
2023-08-14T05:27:00.496Z,96452.00
2023-08-14T05:29:26.912Z,96448.13
2023-08-14T05:31:53.360Z,96460.25
2023-08-14T05:34:19.744Z,96447.72
2023-08-14T05:36:46.137Z,96453.69
2023-08-14T05:39:12.559Z,96453.66
2023-08-14T05:41:38.962Z,96453.03
2023-08-14T05:44:06.488Z,96454.25
2023-08-14T05:46:33.003Z,96446.22
2023-08-14T05:48:59.389Z,96446.19
2023-08-14T05:51:25.848Z,96446.38
2023-08-14T05:53:52.234Z,96442.06
2023-08-14T05:56:18.630Z,96444.28
2023-08-14T05:58:45.025Z,96442.66
2023-08-14T06:01:11.435Z,96434.84
2023-08-14T06:03:44.878Z,96432.34
2023-08-14T06:06:12.115Z,96426.63
2023-08-14T06:08:38.518Z,96434.44
2023-08-14T06:11:04.970Z,96425.38
2023-08-14T06:13:32.519Z,96431.53
2023-08-14T06:15:58.946Z,96417.06
2023-08-14T06:18:25.439Z,96425.66
2023-08-14T06:20:52.574Z,96423.19
2023-08-14T06:23:20.117Z,96433.84
2023-08-14T06:25:46.888Z,96441.63
2023-08-14T06:28:13.351Z,96442.81
2023-08-14T06:30:39.852Z,96439.28
2023-08-14T06:33:06.418Z,96430.22
2023-08-14T06:35:32.866Z,96432.69
2023-08-14T06:37:59.411Z,96427.13
2023-08-14T06:40:25.833Z,96431.44
2023-08-14T06:42:53.207Z,96429.97
2023-08-14T06:45:20.206Z,96431.41
2023-08-14T06:47:46.701Z,96426.47
2023-08-14T06:50:14.230Z,96429.31
2023-08-14T06:52:41.224Z,96426.38
2023-08-14T06:55:08.129Z,96437.66
2023-08-14T06:57:34.799Z,96428.19
2023-08-14T07:00:06.620Z,96425.66
2023-08-14T07:02:33.216Z,96431.00
2023-08-14T07:04:59.671Z,96431.78
2023-08-14T07:07:26.091Z,96421.84
2023-08-14T07:09:52.485Z,96423.44
2023-08-14T07:12:19.680Z,96433.66
2023-08-14T07:14:46.369Z,96426.28
2023-08-14T07:17:12.927Z,96427.53
2023-08-14T07:19:39.403Z,96422.94
2023-08-14T07:22:05.820Z,96419.59
2023-08-14T07:24:32.394Z,96425.94
2023-08-14T07:27:00.311Z,96431.47
2023-08-14T07:29:26.866Z,96429.41
2023-08-14T07:31:53.362Z,96426.06
2023-08-14T07:34:19.831Z,96426.22
2023-08-14T07:36:46.407Z,96419.13
2023-08-14T07:39:12.880Z,96422.88
2023-08-14T07:41:39.263Z,96424.66
2023-08-14T07:44:05.894Z,96424.88
2023-08-14T07:46:32.435Z,96423.41
2023-08-14T07:48:59.002Z,96435.38
2023-08-14T07:51:25.464Z,96438.22
2023-08-14T07:53:53.213Z,96427.47
2023-08-14T07:56:19.678Z,96430.72
2023-08-14T07:58:46.116Z,96433.53
2023-08-14T08:01:12.845Z,96429.75
2023-08-14T08:03:39.332Z,96426.75
2023-08-14T08:06:06.832Z,96433.91
2023-08-14T08:08:33.429Z,96433.69
2023-08-14T08:10:59.839Z,96442.13
2023-08-14T08:13:26.262Z,96433.41
2023-08-14T08:15:52.750Z,96443.00
2023-08-14T08:18:19.458Z,96432.50
2023-08-14T08:20:46.103Z,96437.63
2023-08-14T08:23:12.550Z,96445.38
2023-08-14T08:25:38.946Z,96444.50
2023-08-14T08:28:05.692Z,96436.72
2023-08-14T08:30:32.087Z,96441.41
2023-08-14T08:35:28.845Z,96437.94
2023-08-14T08:37:55.251Z,96439.09
2023-08-14T08:40:23.021Z,96441.47
2023-08-14T08:42:49.927Z,96438.50
2023-08-14T08:45:19.271Z,96435.13
2023-08-14T08:47:49.325Z,96428.13
2023-08-14T08:50:15.994Z,96424.75
2023-08-14T08:52:43.635Z,96425.09
2023-08-14T08:55:10.335Z,96432.13
2023-08-14T08:57:39.259Z,96428.06
2023-08-14T09:00:06.476Z,96425.13
2023-08-14T09:02:32.889Z,96434.50
2023-08-14T09:04:59.386Z,96425.84
2023-08-14T09:07:25.930Z,96436.59
2023-08-14T09:09:52.410Z,96432.66
2023-08-14T09:12:19.157Z,96436.19
2023-08-14T09:14:59.972Z,96434.78
2023-08-14T09:17:26.690Z,96433.59
2023-08-14T09:19:53.139Z,96435.00
2023-08-14T09:22:19.713Z,96417.47
2023-08-14T09:24:49.377Z,96425.19
2023-08-14T09:27:17.160Z,96417.56
2023-08-14T09:29:43.902Z,96422.81
2023-08-14T09:32:11.670Z,96422.22
2023-08-14T09:34:38.888Z,96419.31
2023-08-14T09:37:05.849Z,96422.94
2023-08-14T09:39:32.318Z,96421.97
2023-08-14T09:41:58.873Z,96421.34
2023-08-14T09:44:25.534Z,96414.31
2023-08-14T09:46:55.459Z,96426.56
2023-08-14T09:49:22.474Z,96419.03
2023-08-14T09:51:56.869Z,96419.06
2023-08-14T09:54:34.660Z,96408.00
2023-08-14T09:57:08.549Z,96417.31
2023-08-14T09:59:36.755Z,96429.72
2023-08-14T10:02:04.660Z,96424.06
2023-08-14T10:04:32.188Z,96421.16
2023-08-14T10:06:59.315Z,96422.72
2023-08-14T10:09:30.186Z,96419.13
2023-08-14T10:12:01.733Z,96415.19
2023-08-14T10:14:30.243Z,96421.88
2023-08-14T10:17:01.917Z,96416.19
2023-08-14T10:19:30.603Z,96416.47
2023-08-14T10:21:58.329Z,96420.56
2023-08-14T10:24:28.752Z,96419.84
2023-08-14T10:26:57.935Z,96426.38
2023-08-14T10:29:25.246Z,96424.34
2023-08-14T10:31:52.133Z,96429.00
2023-08-14T10:34:19.464Z,96432.41
2023-08-14T10:36:50.296Z,96432.78
2023-08-14T10:39:19.473Z,96437.22
2023-08-14T10:41:46.718Z,96433.44
2023-08-14T10:44:13.325Z,96432.31
2023-08-14T10:46:43.556Z,96434.41
2023-08-14T10:49:14.391Z,96435.97
2023-08-14T10:51:44.663Z,96430.41
2023-08-14T10:54:13.970Z,96426.31
2023-08-14T10:56:46.759Z,96420.25
2023-08-14T10:59:29.750Z,96424.56
2023-08-14T11:02:15.659Z,96426.47
2023-08-14T11:05:23.281Z,96422.53
2023-08-14T11:07:59.016Z,96419.03
2023-08-14T11:10:26.799Z,96413.44
2023-08-14T11:12:54.466Z,96412.25
2023-08-14T11:15:24.347Z,96404.66
2023-08-14T11:17:51.146Z,96396.72
2023-08-14T11:20:17.824Z,96393.03
2023-08-14T11:22:45.757Z,96389.44
2023-08-14T11:25:18.785Z,96383.69
2023-08-14T11:27:50.620Z,96395.19
2023-08-14T11:30:26.223Z,96395.56
2023-08-14T11:32:54.847Z,96396.41
2023-08-14T11:37:52.778Z,96394.69
2023-08-14T11:40:19.254Z,96395.38
2023-08-14T11:42:45.738Z,96393.66
2023-08-14T11:45:12.553Z,96398.81
2023-08-14T11:47:41.347Z,96400.94
2023-08-14T11:50:08.949Z,96403.44
2023-08-14T11:52:37.038Z,96397.56
2023-08-14T11:55:04.143Z,96397.34
2023-08-14T11:57:32.791Z,96407.16
2023-08-14T12:00:03.940Z,96405.16
2023-08-14T12:02:31.528Z,96401.53
2023-08-14T12:05:01.518Z,96405.16
2023-08-14T12:07:28.367Z,96404.06
2023-08-14T12:09:56.013Z,96397.75
2023-08-14T12:12:23.623Z,96396.25
2023-08-14T12:14:51.522Z,96401.72
2023-08-14T12:17:21.055Z,96399.56
2023-08-14T12:19:52.459Z,96408.31
2023-08-14T12:22:23.447Z,96405.06
2023-08-14T12:24:50.712Z,96404.31
2023-08-14T12:27:24.653Z,96395.81
2023-08-14T12:29:52.968Z,96402.09
2023-08-14T12:32:20.219Z,96399.50
2023-08-14T12:34:47.527Z,96399.16
2023-08-14T12:37:17.823Z,96399.69
2023-08-14T12:39:51.938Z,96405.38
2023-08-14T12:42:18.661Z,96403.97
2023-08-14T12:44:45.192Z,96403.75
2023-08-14T12:47:11.823Z,96392.94
2023-08-14T12:49:38.365Z,96399.44
2023-08-14T12:52:09.828Z,96394.03
2023-08-14T12:54:39.487Z,96393.09
2023-08-14T12:57:07.173Z,96399.50
2023-08-14T12:59:33.964Z,96382.78
2023-08-14T13:02:00.508Z,96378.88
2023-08-14T13:04:28.336Z,96372.50
2023-08-14T13:06:56.301Z,96370.09
2023-08-14T13:09:22.713Z,96376.28
2023-08-14T13:11:49.124Z,96367.09
2023-08-14T13:14:15.795Z,96366.66
2023-08-14T13:16:42.254Z,96361.91
2023-08-14T13:19:08.760Z,96366.31
2023-08-14T13:21:35.226Z,96360.88
2023-08-14T13:24:01.711Z,96363.56
2023-08-14T13:26:29.559Z,96350.59
2023-08-14T13:28:57.403Z,96356.94
2023-08-14T13:31:24.032Z,96357.69
2023-08-14T13:33:50.893Z,96360.72
2023-08-14T13:36:17.429Z,96354.56
2023-08-14T13:38:43.862Z,96362.78
2023-08-14T13:41:11.478Z,96360.44
2023-08-14T13:43:38.279Z,96354.88
2023-08-14T13:46:04.713Z,96357.13
2023-08-14T13:48:31.206Z,96351.81
2023-08-14T13:50:57.899Z,96357.78
2023-08-14T13:53:24.319Z,96352.13
2023-08-14T13:55:52.710Z,96353.75
2023-08-14T13:58:19.426Z,96351.31
2023-08-14T14:00:46.064Z,96357.25
2023-08-14T14:03:12.575Z,96356.97
2023-08-14T14:05:39.869Z,96349.66
2023-08-14T14:08:06.689Z,96341.50
2023-08-14T14:10:33.211Z,96329.03
2023-08-14T14:13:02.645Z,96330.09
2023-08-14T14:15:30.440Z,96319.75
2023-08-14T14:17:57.304Z,96325.19
2023-08-14T14:20:23.856Z,96322.50
2023-08-14T14:22:50.273Z,96319.50
2023-08-14T14:25:16.742Z,96308.38
2023-08-14T14:27:43.177Z,96311.91
2023-08-14T14:30:10.029Z,96313.28
2023-08-14T14:32:39.784Z,96312.75
2023-08-14T14:35:06.605Z,96314.88
2023-08-14T14:37:33.172Z,96313.31
2023-08-14T14:39:59.812Z,96310.00
2023-08-14T14:42:26.539Z,96304.31
2023-08-14T14:44:54.313Z,96309.66
2023-08-14T14:47:22.512Z,96308.78
2023-08-14T14:49:49.463Z,96303.50
2023-08-14T14:52:15.856Z,96310.31
2023-08-14T14:54:42.258Z,96307.13
2023-08-14T14:57:08.659Z,96304.41
2023-08-14T14:59:35.418Z,96299.25
2023-08-14T15:02:06.722Z,96308.50
2023-08-14T15:04:38.951Z,96303.38
2023-08-14T15:07:06.196Z,96303.91
2023-08-14T15:09:32.611Z,96297.09
2023-08-14T15:11:59.059Z,96295.75
2023-08-14T15:14:25.486Z,96301.56
2023-08-14T15:16:54.067Z,96301.06
2023-08-14T15:19:20.728Z,96298.47
2023-08-14T15:21:47.138Z,96293.13
2023-08-14T15:24:13.564Z,96291.28
2023-08-14T15:26:40.710Z,96288.06
2023-08-14T15:29:07.314Z,96293.50
2023-08-14T15:31:33.750Z,96291.63
2023-08-14T15:34:00.176Z,96291.09
2023-08-14T15:36:26.574Z,96294.88
2023-08-14T15:38:53.167Z,96298.69
2023-08-14T15:41:19.758Z,96304.13
2023-08-14T15:43:46.179Z,96307.91
2023-08-14T15:46:12.684Z,96311.69
2023-08-14T15:48:41.052Z,96299.53
2023-08-14T15:51:07.473Z,96287.84
2023-08-14T15:53:33.854Z,96274.84
2023-08-14T15:56:00.305Z,96279.19
2023-08-14T15:58:26.686Z,96285.13
2023-08-14T16:00:53.362Z,96289.47
2023-08-14T16:03:19.823Z,96285.13
2023-08-14T16:05:46.197Z,96282.41
2023-08-14T16:08:12.877Z,96277.78
2023-08-14T16:10:39.264Z,96281.78
2023-08-14T16:13:05.652Z,96280.09
2023-08-14T16:15:32.074Z,96280.09
2023-08-14T16:17:58.504Z,96275.19
2023-08-14T16:20:24.899Z,96266.19
2023-08-14T16:22:51.405Z,96276.78
2023-08-14T16:25:17.999Z,96270.06
2023-08-14T16:27:44.378Z,96265.59
2023-08-14T16:30:11.235Z,96264.09
2023-08-14T16:32:37.741Z,96262.22
2023-08-14T16:35:04.915Z,96259.81
2023-08-14T16:37:31.405Z,96254.06
2023-08-14T16:39:57.957Z,96250.19
2023-08-14T16:42:24.487Z,96250.84
2023-08-14T16:44:51.180Z,96252.19
2023-08-14T16:47:17.886Z,96243.78
2023-08-14T16:49:44.769Z,96245.75
2023-08-14T16:52:11.236Z,96246.56
2023-08-14T16:54:37.681Z,96246.63
2023-08-14T16:57:05.893Z,96243.66
2023-08-14T16:59:32.320Z,96246.13
2023-08-14T17:01:58.919Z,96255.72
2023-08-14T17:04:25.520Z,96251.72
2023-08-14T17:06:52.030Z,96248.84
2023-08-14T17:09:19.004Z,96254.56
2023-08-14T17:11:45.471Z,96252.19
2023-08-14T17:14:12.068Z,96253.31
2023-08-14T17:16:38.669Z,96250.31
2023-08-14T17:19:05.646Z,96261.09
2023-08-14T17:21:32.058Z,96257.75
2023-08-14T17:23:58.528Z,96268.09
2023-08-14T17:26:25.227Z,96264.38
2023-08-14T17:28:51.655Z,96266.81
2023-08-14T17:31:18.170Z,96274.50
2023-08-14T17:33:44.869Z,96270.06
2023-08-14T17:36:11.256Z,96260.13
2023-08-14T17:38:37.686Z,96272.75
2023-08-14T17:41:04.366Z,96267.91
2023-08-14T17:43:31.025Z,96280.78
2023-08-14T17:45:58.509Z,96271.81
2023-08-14T17:48:25.300Z,96275.03
2023-08-14T17:50:52.699Z,96272.75
2023-08-14T17:53:20.129Z,96276.69
2023-08-14T17:55:46.737Z,96276.22
2023-08-14T17:58:13.174Z,96281.72
2023-08-14T18:00:45.761Z,96280.41
2023-08-14T18:03:12.353Z,96283.69
2023-08-14T18:05:39.072Z,96285.06
2023-08-14T18:08:05.617Z,96287.56
2023-08-14T18:10:32.322Z,96290.53
2023-08-14T18:12:58.744Z,96297.06
2023-08-14T18:15:25.185Z,96302.75
2023-08-14T18:17:51.604Z,96296.50
2023-08-14T18:20:18.071Z,96299.75
2023-08-14T18:22:44.570Z,96307.06
2023-08-14T18:25:11.009Z,96309.78
2023-08-14T18:27:37.492Z,96311.63
2023-08-14T18:30:04.388Z,96315.16
2023-08-14T18:32:30.844Z,96320.28
2023-08-14T18:34:57.384Z,96316.75
2023-08-14T18:37:24.225Z,96313.47
2023-08-14T18:39:50.671Z,96317.47
2023-08-14T18:42:17.168Z,96323.91
2023-08-14T18:44:43.606Z,96321.41
2023-08-14T18:47:10.056Z,96328.16
2023-08-14T18:49:36.482Z,96334.06
2023-08-14T18:52:02.971Z,96332.84
2023-08-14T18:54:29.462Z,96335.53
2023-08-14T18:56:55.866Z,96343.25
2023-08-14T18:59:24.075Z,96345.34
2023-08-14T19:01:51.910Z,96348.53
2023-08-14T19:04:25.700Z,96341.25
2023-08-14T19:06:55.875Z,96349.03
2023-08-14T19:09:22.339Z,96357.94
2023-08-14T19:11:48.817Z,96353.06
2023-08-14T19:14:15.344Z,96353.53
2023-08-14T19:16:41.743Z,96357.50
2023-08-14T19:19:08.160Z,96355.53
2023-08-14T19:21:34.989Z,96361.69
2023-08-14T19:24:01.432Z,96360.81
2023-08-14T19:26:28.773Z,96364.19
2023-08-14T19:28:55.367Z,96364.44
2023-08-14T19:31:23.559Z,96369.19
2023-08-14T19:33:50.802Z,96371.78
2023-08-14T19:36:17.233Z,96373.50
2023-08-14T19:38:43.958Z,96376.78
2023-08-14T19:41:10.431Z,96378.81
2023-08-14T19:43:36.834Z,96379.84
2023-08-14T19:46:03.291Z,96376.47
2023-08-14T19:48:29.715Z,96371.25
2023-08-14T19:50:57.049Z,96367.78
2023-08-14T19:53:23.480Z,96371.56
2023-08-14T19:55:49.912Z,96376.31
2023-08-14T19:58:16.369Z,96371.44
2023-08-14T20:00:43.037Z,96377.34
2023-08-14T20:03:09.987Z,96377.22
2023-08-14T20:05:36.597Z,96379.34
2023-08-14T20:08:03.238Z,96385.81
2023-08-14T20:10:29.693Z,96389.00
2023-08-14T20:12:56.131Z,96384.25
2023-08-14T20:15:22.545Z,96387.31
2023-08-14T20:17:49.056Z,96390.06
2023-08-14T20:20:18.403Z,96387.28
2023-08-14T20:22:45.060Z,96385.25
2023-08-14T20:25:12.060Z,96382.47
2023-08-14T20:27:38.465Z,96389.47
2023-08-14T20:30:05.182Z,96394.31
2023-08-14T20:32:31.620Z,96392.69
2023-08-14T20:34:58.023Z,96396.44
2023-08-14T20:37:24.710Z,96400.00
2023-08-14T20:39:51.767Z,96397.47
2023-08-14T20:42:18.267Z,96399.00
2023-08-14T20:44:45.431Z,96401.63
2023-08-14T20:47:11.871Z,96408.97
2023-08-14T20:49:38.405Z,96414.00
2023-08-14T20:52:05.149Z,96418.81
2023-08-14T20:54:31.827Z,96427.63
2023-08-14T20:57:01.285Z,96438.38
2023-08-14T20:59:27.803Z,96432.34
2023-08-14T21:01:55.381Z,96443.13
2023-08-14T21:04:22.712Z,96446.81
2023-08-14T21:06:49.218Z,96445.97
2023-08-14T21:09:15.677Z,96459.06
2023-08-14T21:11:42.339Z,96454.38
2023-08-14T21:14:08.750Z,96454.25
2023-08-14T21:16:35.436Z,96456.03
2023-08-14T21:19:01.889Z,96466.44
2023-08-14T21:21:28.364Z,96473.97
2023-08-14T21:23:54.911Z,96471.84
2023-08-14T21:26:21.304Z,96473.47
2023-08-14T21:28:47.670Z,96474.31
2023-08-14T21:31:14.121Z,96467.78
2023-08-14T21:33:40.823Z,96473.38
2023-08-14T21:36:07.582Z,96456.88
2023-08-14T21:38:34.130Z,96462.16
2023-08-14T21:41:04.644Z,96462.66
2023-08-14T21:43:31.365Z,96454.84
2023-08-14T21:45:57.812Z,96455.84
2023-08-14T21:48:24.360Z,96458.91
2023-08-14T21:50:50.761Z,96456.13
2023-08-14T21:53:17.292Z,96456.38
2023-08-14T21:55:43.676Z,96455.44
2023-08-14T21:58:10.065Z,96457.56
2023-08-14T22:00:36.650Z,96459.41
2023-08-14T22:03:03.416Z,96458.41
2023-08-14T22:05:29.813Z,96454.88
2023-08-14T22:07:56.316Z,96452.28
2023-08-14T22:10:22.909Z,96455.34
2023-08-14T22:12:49.508Z,96456.28
2023-08-14T22:15:16.079Z,96446.13
2023-08-14T22:17:42.531Z,96449.38
2023-08-14T22:20:11.080Z,96448.91
2023-08-14T22:22:38.005Z,96447.06
2023-08-14T22:25:07.467Z,96449.03
2023-08-14T22:27:35.615Z,96439.59
2023-08-14T22:30:02.661Z,96445.06
2023-08-14T22:32:29.050Z,96451.75
2023-08-14T22:34:55.424Z,96444.38
2023-08-14T22:37:22.040Z,96454.66
2023-08-14T22:39:48.682Z,96454.19
2023-08-14T22:42:15.078Z,96461.31
2023-08-14T22:44:41.446Z,96462.25
2023-08-14T22:47:07.828Z,96469.59
2023-08-14T22:49:34.392Z,96460.16
2023-08-14T22:52:00.776Z,96462.59
2023-08-14T22:54:27.274Z,96456.97
2023-08-14T22:56:53.725Z,96464.81
2023-08-14T22:59:20.091Z,96454.53
2023-08-14T23:01:46.480Z,96464.47
2023-08-14T23:04:13.053Z,96473.34
2023-08-14T23:06:39.448Z,96466.94
2023-08-14T23:09:05.809Z,96461.78
2023-08-14T23:11:34.764Z,96455.56
2023-08-14T23:14:01.422Z,96462.44
2023-08-14T23:16:27.863Z,96464.66
2023-08-14T23:18:54.221Z,96468.69
2023-08-14T23:21:20.610Z,96463.56
2023-08-14T23:23:47.006Z,96468.44
2023-08-14T23:26:14.313Z,96460.13
2023-08-14T23:28:40.780Z,96462.03
2023-08-14T23:31:07.248Z,96466.44
2023-08-14T23:33:33.628Z,96470.56
2023-08-14T23:36:00.038Z,96473.00
2023-08-14T23:38:26.427Z,96474.25
2023-08-14T23:40:52.829Z,96477.19
2023-08-14T23:43:19.207Z,96465.63
2023-08-14T23:45:46.097Z,96470.19
2023-08-14T23:48:12.551Z,96460.94
2023-08-14T23:50:39.061Z,96463.34
2023-08-14T23:53:05.537Z,96454.72
2023-08-14T23:55:31.971Z,96456.78
2023-08-14T23:57:58.362Z,96460.53
